Time;durP1;ratioP1;P1;durP2;ratioP2;P2;SDS_P1;SDS_P2;PMS_P1;PMS_P2;Temp;Humidity;BMP_temperature;BMP_pressure;BME280_temperature;BME280_humidity;BME280_pressure;Samples;Min_cycle;Max_cycle;Signal;HPM_P1;HPM_P2
2022/07/24 00:01:33;;;;;;;13.23;9.70;;;18.70;99.90;;;;;;5021302;28;20754;-53
2022/07/24 00:04:03;;;;;;;10.10;9.10;;;18.70;99.90;;;;;;5021153;28;20749;-53
2022/07/24 00:06:30;;;;;;;12.83;9.07;;;18.70;99.90;;;;;;5021212;28;20566;-53
2022/07/24 00:08:58;;;;;;;12.10;9.47;;;18.70;99.90;;;;;;5021334;28;20414;-51
2022/07/24 00:11:25;;;;;;;10.10;9.07;;;18.70;99.90;;;;;;5021582;28;20438;-52
2022/07/24 00:13:53;;;;;;;11.30;10.10;;;18.80;99.90;;;;;;5021334;28;20436;-51
2022/07/24 00:16:20;;;;;;;11.57;10.13;;;18.80;99.90;;;;;;5021081;28;20466;-52
2022/07/24 00:18:47;;;;;;;10.83;9.83;;;18.80;99.90;;;;;;5001626;28;20421;-53
2022/07/24 00:21:14;;;;;;;9.70;8.77;;;18.90;99.90;;;;;;5021311;28;20535;-55
2022/07/24 00:23:43;;;;;;;11.70;10.00;;;19.00;99.90;;;;;;5021379;28;20455;-54
2022/07/24 00:26:11;;;;;;;10.07;9.00;;;19.10;99.90;;;;;;5025015;28;20464;-55
2022/07/24 00:28:38;;;;;;;10.50;9.50;;;19.00;99.90;;;;;;5021329;28;20434;-50
2022/07/24 00:31:06;;;;;;;10.40;9.30;;;19.00;99.90;;;;;;5021231;28;20438;-54
2022/07/24 00:33:33;;;;;;;11.17;10.20;;;18.90;99.90;;;;;;5020102;28;20788;-51
2022/07/24 00:36:01;;;;;;;10.40;9.33;;;18.80;99.90;;;;;;5020773;28;20445;-51
2022/07/24 00:38:28;;;;;;;10.07;9.07;;;18.80;99.90;;;;;;5020883;28;20505;-55
2022/07/24 00:40:55;;;;;;;9.40;8.57;;;18.80;99.90;;;;;;5020383;28;20441;-55
2022/07/24 00:43:22;;;;;;;9.77;8.80;;;18.80;99.90;;;;;;5020464;28;20438;-54
2022/07/24 00:45:50;;;;;;;10.57;9.53;;;18.70;99.90;;;;;;5002718;28;20862;-51
2022/07/24 00:48:19;;;;;;;14.50;13.00;;;18.70;99.90;;;;;;5020212;28;20431;-53
2022/07/24 00:50:47;;;;;;;12.97;9.53;;;18.70;99.90;;;;;;5012161;28;20431;-54
2022/07/24 00:53:15;;;;;;;9.43;8.43;;;18.70;99.90;;;;;;5020552;28;20430;-53
2022/07/24 00:55:42;;;;;;;11.20;9.43;;;18.60;99.90;;;;;;5020210;28;20458;-55
2022/07/24 00:58:12;;;;;;;10.73;9.07;;;18.60;99.90;;;;;;5020053;28;20784;-55
2022/07/24 01:00:40;;;;;;;9.60;8.70;;;18.50;99.90;;;;;;5020327;28;20452;-53
2022/07/24 01:03:07;;;;;;;9.83;8.83;;;18.40;99.90;;;;;;5020344;28;20505;-54
2022/07/24 01:05:34;;;;;;;9.57;8.67;;;18.40;99.90;;;;;;5020031;28;20684;-56
2022/07/24 01:08:02;;;;;;;9.33;8.20;;;18.40;99.90;;;;;;5020082;28;20430;-52
2022/07/24 01:10:29;;;;;;;8.87;7.93;;;18.40;99.90;;;;;;5019732;28;20769;-53
2022/07/24 01:12:57;;;;;;;13.03;10.17;;;18.30;99.90;;;;;;5020208;28;20426;-53
2022/07/24 01:15:24;;;;;;;9.30;8.50;;;18.20;99.90;;;;;;5019911;28;20463;-52
2022/07/24 01:17:52;;;;;;;9.40;8.50;;;18.20;99.90;;;;;;5019584;28;20438;-56
2022/07/24 01:20:19;;;;;;;10.43;9.40;;;18.10;99.90;;;;;;5019919;28;20438;-53
2022/07/24 01:22:47;;;;;;;9.53;8.63;;;17.90;99.90;;;;;;5016583;28;20441;-51
2022/07/24 01:25:15;;;;;;;10.07;9.07;;;17.60;99.90;;;;;;5026147;28;20863;-52
2022/07/24 01:27:42;;;;;;;10.20;8.70;;;17.70;99.90;;;;;;5023935;28;20776;-55
2022/07/24 01:30:10;;;;;;;11.77;9.33;;;17.90;99.90;;;;;;5020069;28;20441;-52
2022/07/24 01:32:37;;;;;;;9.47;8.50;;;17.90;99.90;;;;;;5018476;28;20442;-50
2022/07/24 01:35:05;;;;;;;10.00;9.10;;;17.80;99.90;;;;;;5020075;28;20452;-54
2022/07/24 01:37:32;;;;;;;11.63;10.37;;;17.80;99.90;;;;;;5020070;28;20476;-54
2022/07/24 01:39:59;;;;;;;13.93;9.97;;;17.80;99.90;;;;;;5023916;28;20742;-51
2022/07/24 01:42:28;;;;;;;11.63;9.97;;;17.80;99.90;;;;;;5024017;28;20448;-53
2022/07/24 01:44:55;;;;;;;12.20;9.93;;;17.70;99.90;;;;;;5024243;28;20668;-51
2022/07/24 01:47:22;;;;;;;11.20;10.10;;;17.80;99.90;;;;;;5027690;28;20441;-55
2022/07/24 01:49:50;;;;;;;12.27;9.03;;;17.80;99.90;;;;;;5035639;28;20409;-54
2022/07/24 01:52:18;;;;;;;9.73;8.83;;;17.80;99.90;;;;;;5035503;28;20424;-55
2022/07/24 01:54:45;;;;;;;10.97;9.60;;;17.70;99.90;;;;;;5031506;28;20464;-54
2022/07/24 01:57:12;;;;;;;11.10;10.10;;;17.70;99.90;;;;;;5029516;28;20450;-54
2022/07/24 01:59:45;;;;;;;12.43;10.60;;;17.70;99.90;;;;;;5024044;28;20631;-54
2022/07/24 02:02:13;;;;;;;11.40;10.40;;;17.80;99.90;;;;;;5023735;28;20606;-55
2022/07/24 02:04:41;;;;;;;11.80;10.57;;;17.70;99.90;;;;;;5022858;28;20442;-54
2022/07/24 02:07:08;;;;;;;12.57;10.23;;;17.60;99.90;;;;;;5018148;28;20462;-55
2022/07/24 02:09:36;;;;;;;11.20;10.10;;;17.50;99.90;;;;;;5022894;28;20440;-55
2022/07/24 02:12:03;;;;;;;11.90;9.83;;;17.30;99.90;;;;;;5023360;28;20433;-56
2022/07/24 02:14:31;;;;;;;9.90;8.97;;;17.30;99.90;;;;;;5023214;28;20419;-56
2022/07/24 02:16:59;;;;;;;11.23;10.13;;;17.30;99.90;;;;;;5022982;28;20453;-53
2022/07/24 02:19:26;;;;;;;12.23;10.30;;;17.40;99.90;;;;;;5022697;28;20414;-52
2022/07/24 02:21:53;;;;;;;12.73;10.10;;;17.20;99.90;;;;;;5022904;28;20750;-53
2022/07/24 02:24:20;;;;;;;11.77;10.53;;;17.10;99.90;;;;;;5022868;28;20434;-52
2022/07/24 02:26:49;;;;;;;13.57;9.90;;;17.10;99.90;;;;;;5022787;28;20487;-54
2022/07/24 02:29:16;;;;;;;10.70;9.67;;;17.00;99.90;;;;;;5022622;28;20472;-55
2022/07/24 02:31:43;;;;;;;9.40;8.50;;;17.00;99.90;;;;;;5022814;28;20415;-55
2022/07/24 02:34:10;;;;;;;10.77;9.77;;;17.00;99.90;;;;;;5022499;28;20426;-55
2022/07/24 02:36:39;;;;;;;10.57;9.43;;;17.00;99.90;;;;;;5022790;28;20461;-53
2022/07/24 02:39:06;;;;;;;8.97;8.07;;;17.00;99.90;;;;;;5023037;28;20470;-54
2022/07/24 02:41:34;;;;;;;11.53;10.33;;;17.00;99.90;;;;;;5021472;28;20502;-52
2022/07/24 02:44:01;;;;;;;11.40;9.97;;;17.00;99.90;;;;;;5022969;28;20432;-56
2022/07/24 02:46:29;;;;;;;9.90;8.90;;;17.10;99.90;;;;;;5021964;28;20806;-54
2022/07/24 02:48:57;;;;;;;11.80;10.73;;;17.00;99.90;;;;;;5021625;28;20778;-51
2022/07/24 02:51:24;;;;;;;10.40;9.40;;;16.90;99.90;;;;;;5022392;28;20746;-53
2022/07/24 02:53:51;;;;;;;10.03;9.17;;;16.80;99.90;;;;;;5022640;28;20763;-52
2022/07/24 02:56:18;;;;;;;13.13;10.47;;;16.80;99.90;;;;;;5022576;28;20882;-51
2022/07/24 02:58:46;;;;;;;9.27;8.37;;;16.80;99.90;;;;;;5014290;28;20424;-55
2022/07/24 03:01:13;;;;;;;8.43;7.73;;;16.70;99.90;;;;;;5022032;28;20446;-54
2022/07/24 03:03:41;;;;;;;11.00;9.37;;;16.70;99.90;;;;;;5021857;28;20810;-52
2022/07/24 03:06:09;;;;;;;13.63;10.03;;;16.60;99.90;;;;;;5004855;28;20817;-54
2022/07/24 03:08:36;;;;;;;12.13;10.43;;;16.60;99.90;;;;;;5022277;28;20446;-50
2022/07/24 03:11:03;;;;;;;11.23;10.07;;;16.60;99.90;;;;;;5022348;28;20773;-52
2022/07/24 03:13:30;;;;;;;9.80;8.83;;;16.60;99.90;;;;;;5021943;28;20659;-54
2022/07/24 03:15:58;;;;;;;11.60;10.50;;;16.50;99.90;;;;;;5022048;28;20457;-53
2022/07/24 03:18:25;;;;;;;12.13;11.03;;;16.50;99.90;;;;;;5021791;28;20460;-54
2022/07/24 03:20:52;;;;;;;11.23;9.37;;;16.40;99.90;;;;;;5021970;28;20441;-54
2022/07/24 03:23:20;;;;;;;13.07;11.77;;;16.50;99.90;;;;;;5021929;28;20443;-53
2022/07/24 03:25:47;;;;;;;11.40;10.20;;;16.40;99.90;;;;;;5020633;28;20812;-53
2022/07/24 03:28:15;;;;;;;10.83;9.60;;;16.40;99.90;;;;;;5025547;28;20434;-52
2022/07/24 03:30:42;;;;;;;13.17;10.37;;;16.40;99.90;;;;;;5029085;28;20441;-53
2022/07/24 03:33:10;;;;;;;11.37;10.23;;;16.50;99.90;;;;;;5026347;28;20484;-54
2022/07/24 03:35:37;;;;;;;11.80;10.50;;;16.40;99.90;;;;;;5021408;28;20824;-55
2022/07/24 03:38:07;;;;;;;11.67;10.57;;;16.40;99.90;;;;;;5021413;28;20442;-55
2022/07/24 03:40:34;;;;;;;13.13;10.07;;;16.40;99.90;;;;;;5021217;28;20461;-53
2022/07/24 03:43:02;;;;;;;12.50;11.17;;;16.50;99.90;;;;;;5021471;28;20438;-52
2022/07/24 03:45:29;;;;;;;13.30;11.83;;;16.60;99.90;;;;;;5021007;28;20465;-53
2022/07/24 03:47:56;;;;;;;11.17;10.03;;;16.60;99.90;;;;;;5021311;28;20501;-53
2022/07/24 03:50:24;;;;;;;11.83;10.63;;;16.80;99.90;;;;;;5021269;28;20441;-53
2022/07/24 03:52:52;;;;;;;13.30;10.00;;;16.90;99.90;;;;;;5021221;28;20489;-56
2022/07/24 03:55:19;;;;;;;13.03;10.67;;;17.00;99.90;;;;;;5021123;28;20438;-55
2022/07/24 03:57:47;;;;;;;11.00;10.00;;;16.90;99.90;;;;;;5018882;28;20524;-52
2022/07/24 04:00:15;;;;;;;14.33;10.87;;;17.00;99.90;;;;;;5028569;28;20439;-54
2022/07/24 04:02:42;;;;;;;12.60;11.50;;;16.90;99.90;;;;;;5003574;28;20782;-54
2022/07/24 04:05:10;;;;;;;12.20;10.10;;;16.90;99.90;;;;;;5021078;28;20460;-52
2022/07/24 04:07:37;;;;;;;12.43;11.33;;;17.00;99.90;;;;;;5020498;28;20437;-54
2022/07/24 04:10:06;;;;;;;10.43;9.43;;;17.30;99.90;;;;;;5021024;28;20488;-55
2022/07/24 04:12:34;;;;;;;12.40;11.10;;;17.40;99.90;;;;;;5021154;28;20519;-54
2022/07/24 04:15:02;;;;;;;12.40;10.30;;;17.40;99.90;;;;;;5020504;28;20472;-55
2022/07/24 04:17:30;;;;;;;10.07;8.97;;;17.40;99.90;;;;;;5020773;28;20438;-52
2022/07/24 04:19:57;;;;;;;11.20;10.07;;;17.60;99.90;;;;;;5020397;28;20439;-56
2022/07/24 04:22:24;;;;;;;10.70;9.60;;;17.80;99.90;;;;;;5003275;28;20434;-52
2022/07/24 04:24:52;;;;;;;12.80;8.87;;;17.90;99.90;;;;;;5020552;28;20445;-55
2022/07/24 04:27:19;;;;;;;10.33;8.93;;;17.90;99.90;;;;;;5021058;28;20493;-53
2022/07/24 04:29:46;;;;;;;11.60;8.57;;;17.90;99.90;;;;;;4996851;28;20439;-55
2022/07/24 04:32:15;;;;;;;9.20;8.20;;;17.80;99.90;;;;;;5021185;28;20493;-56
2022/07/24 04:34:42;;;;;;;11.10;9.73;;;17.90;99.90;;;;;;5023155;28;20435;-55
2022/07/24 04:37:10;;;;;;;10.47;9.00;;;17.90;99.90;;;;;;5023232;28;20545;-55
2022/07/24 04:39:37;;;;;;;11.00;7.77;;;18.00;99.90;;;;;;5021360;28;20448;-49
2022/07/24 04:42:06;;;;;;;9.10;8.20;;;18.10;99.90;;;;;;5020450;28;20772;-53
2022/07/24 04:44:33;;;;;;;11.07;7.83;;;18.30;99.90;;;;;;5023378;28;20441;-53
2022/07/24 04:47:00;;;;;;;8.50;7.80;;;18.40;99.90;;;;;;5037321;28;20480;-54
2022/07/24 04:49:27;;;;;;;10.90;8.17;;;18.40;99.90;;;;;;5030683;28;20402;-54
2022/07/24 04:51:55;;;;;;;9.00;8.10;;;18.30;99.90;;;;;;5035355;28;20567;-54
2022/07/24 04:54:23;;;;;;;8.80;7.90;;;18.30;99.90;;;;;;5031575;28;20411;-54
2022/07/24 04:56:51;;;;;;;7.53;6.83;;;18.40;99.90;;;;;;5035974;28;20447;-53
2022/07/24 04:59:19;;;;;;;9.70;8.70;;;18.60;99.90;;;;;;5025633;28;20439;-55
2022/07/24 05:01:46;;;;;;;7.80;7.17;;;18.70;99.90;;;;;;5020407;28;20414;-56
2022/07/24 05:04:14;;;;;;;8.10;7.30;;;18.70;99.90;;;;;;5027470;28;20471;-53
2022/07/24 05:06:41;;;;;;;8.13;6.90;;;18.80;99.90;;;;;;5019520;28;20835;-53
2022/07/24 05:09:09;;;;;;;10.77;7.73;;;18.90;99.90;;;;;;5020257;28;20447;-56
2022/07/24 05:11:36;;;;;;;7.60;6.90;;;19.00;99.90;;;;;;5029566;28;20526;-51
2022/07/24 05:14:03;;;;;;;8.03;7.33;;;19.00;99.90;;;;;;5033529;28;20408;-56
2022/07/24 05:16:31;;;;;;;7.03;6.33;;;19.10;99.90;;;;;;5034109;28;20446;-53
2022/07/24 05:18:58;;;;;;;9.80;7.80;;;19.20;99.90;;;;;;5041158;28;20433;-59
2022/07/24 05:21:28;;;;;;;7.23;6.47;;;19.30;99.90;;;;;;5037037;28;20404;-53
2022/07/24 05:23:56;;;;;;;10.13;7.97;;;19.30;99.90;;;;;;5024571;28;20501;-52
2022/07/24 05:26:23;;;;;;;8.67;7.40;;;19.40;99.90;;;;;;5032207;28;20646;-53
2022/07/24 05:28:50;;;;;;;6.87;6.27;;;19.50;99.90;;;;;;5031331;28;20457;-57
2022/07/24 05:31:18;;;;;;;6.60;5.90;;;19.60;99.90;;;;;;5024420;28;20488;-55
2022/07/24 05:33:45;;;;;;;7.63;6.80;;;19.60;99.90;;;;;;5024190;28;20823;-50
2022/07/24 05:36:13;;;;;;;7.00;6.40;;;19.70;99.90;;;;;;5023848;28;20533;-54
2022/07/24 05:38:40;;;;;;;7.93;7.03;;;19.80;99.90;;;;;;5023699;28;20419;-51
2022/07/24 05:41:07;;;;;;;8.00;6.33;;;19.80;99.90;;;;;;5024142;28;20773;-50
2022/07/24 05:43:35;;;;;;;7.80;5.90;;;20.10;99.90;;;;;;5024286;28;20760;-54
2022/07/24 05:46:04;;;;;;;5.97;5.40;;;20.10;99.90;;;;;;5035908;22;20477;-45
2022/07/24 05:48:32;;;;;;;6.80;6.27;;;20.10;99.90;;;;;;5038222;28;20454;-45
2022/07/24 05:50:59;;;;;;;7.10;6.03;;;20.30;99.90;;;;;;5038439;28;20418;-48
2022/07/24 05:53:27;;;;;;;8.20;5.43;;;20.40;99.90;;;;;;5043241;28;20731;-51
2022/07/24 05:55:54;;;;;;;6.07;5.03;;;20.40;99.90;;;;;;5046313;28;20467;-49
2022/07/24 05:58:21;;;;;;;5.93;4.70;;;20.20;99.90;;;;;;5054774;28;20403;-51
2022/07/24 06:00:49;;;;;;;5.90;4.70;;;20.10;99.90;;;;;;5048005;28;20459;-47
2022/07/24 06:03:16;;;;;;;5.80;5.17;;;20.10;99.90;;;;;;5059106;28;20606;-48
2022/07/24 06:05:44;;;;;;;3.93;3.63;;;20.20;99.90;;;;;;5065450;28;20410;-47
2022/07/24 06:08:11;;;;;;;4.10;3.70;;;20.30;99.90;;;;;;5057100;28;20404;-50
2022/07/24 06:10:38;;;;;;;4.40;4.00;;;20.60;99.90;;;;;;5053753;28;20433;-48
2022/07/24 06:13:05;;;;;;;4.40;4.03;;;20.90;99.90;;;;;;5055759;28;20795;-48
2022/07/24 06:15:34;;;;;;;5.20;4.70;;;21.10;99.90;;;;;;5053632;28;20441;-48
2022/07/24 06:18:06;;;;;;;4.87;4.47;;;21.20;99.90;;;;;;5056133;28;20452;-50
2022/07/24 06:20:33;;;;;;;4.27;3.87;;;21.50;99.90;;;;;;5053344;28;20639;-44
2022/07/24 06:23:00;;;;;;;4.90;4.33;;;22.10;99.90;;;;;;5053458;28;20476;-50
2022/07/24 06:25:28;;;;;;;7.80;4.90;;;22.50;99.90;;;;;;5051507;28;20619;-49
2022/07/24 06:27:57;;;;;;;4.10;3.70;;;23.10;99.90;;;;;;5054517;28;20522;-45
2022/07/24 06:30:26;;;;;;;3.73;3.50;;;23.20;99.90;;;;;;5052934;28;20642;-51
2022/07/24 06:32:56;;;;;;;3.63;3.20;;;23.30;99.90;;;;;;5055028;28;20479;-45
2022/07/24 06:35:26;;;;;;;4.77;3.40;;;23.70;99.90;;;;;;5053549;28;20405;-49
2022/07/24 06:37:55;;;;;;;3.63;2.83;;;24.30;99.90;;;;;;5054310;28;20435;-47
2022/07/24 06:40:22;;;;;;;4.87;3.27;;;25.00;99.90;;;;;;5052007;28;20460;-48
2022/07/24 06:42:49;;;;;;;3.30;3.00;;;24.90;99.90;;;;;;5054751;28;20415;-48
2022/07/24 06:45:17;;;;;;;4.40;3.23;;;24.70;99.90;;;;;;5035902;28;20436;-48
2022/07/24 06:47:44;;;;;;;2.93;2.37;;;24.80;99.90;;;;;;5054033;28;20797;-49
2022/07/24 06:50:13;;;;;;;2.60;2.40;;;25.40;99.90;;;;;;5054505;28;20403;-47
2022/07/24 06:52:41;;;;;;;3.33;2.60;;;26.00;99.90;;;;;;5050764;28;21202;-50
2022/07/24 06:55:08;;;;;;;3.83;2.97;;;26.70;99.90;;;;;;5049205;28;20439;-52
2022/07/24 06:57:36;;;;;;;2.70;2.50;;;27.90;99.90;;;;;;5035430;28;20490;-48
2022/07/24 07:00:06;;;;;;;2.67;2.47;;;28.60;99.90;;;;;;5031755;28;20440;-50
2022/07/24 07:02:34;;;;;;;2.67;2.47;;;28.40;99.90;;;;;;5052788;28;20445;-52
2022/07/24 07:05:01;;;;;;;2.60;2.40;;;28.90;99.90;;;;;;5054114;28;20468;-48
2022/07/24 07:07:28;;;;;;;2.77;2.50;;;30.00;98.10;;;;;;5048005;28;20842;-52
2022/07/24 07:09:56;;;;;;;3.57;2.37;;;31.10;95.70;;;;;;5053630;28;20437;-50
2022/07/24 07:12:23;;;;;;;3.17;2.80;;;32.50;91.70;;;;;;5046572;28;20448;-46
2022/07/24 07:14:50;;;;;;;4.23;3.20;;;33.00;88.90;;;;;;5053488;28;20516;-47
2022/07/24 07:17:18;;;;;;;2.60;2.40;;;33.80;84.60;;;;;;5046526;28;20460;-47
2022/07/24 07:19:45;;;;;;;2.37;2.10;;;34.00;80.20;;;;;;5053143;28;20437;-50
2022/07/24 07:22:12;;;;;;;2.10;2.00;;;33.90;76.90;;;;;;5053401;28;20447;-48
2022/07/24 07:24:40;;;;;;;2.43;1.93;;;34.40;74.80;;;;;;5047476;28;20788;-48
2022/07/24 07:27:12;;;;;;;1.90;1.80;;;35.20;70.40;;;;;;5056162;28;20480;-46
2022/07/24 07:29:39;;;;;;;1.87;1.77;;;35.40;66.70;;;;;;5047085;28;20504;-46
2022/07/24 07:32:07;;;;;;;2.30;2.10;;;35.60;64.70;;;;;;5053070;28;20435;-47
2022/07/24 07:34:34;;;;;;;1.67;1.57;;;35.20;65.40;;;;;;5045895;28;20434;-50
2022/07/24 07:37:02;;;;;;;4.83;1.70;;;35.60;63.60;;;;;;5052165;28;20459;-49
2022/07/24 07:39:29;;;;;;;1.50;1.40;;;35.50;63.00;;;;;;5052177;28;20425;-46
2022/07/24 07:41:56;;;;;;;1.40;1.30;;;35.20;61.10;;;;;;5048392;28;20640;-54
2022/07/24 07:44:24;;;;;;;1.57;1.47;;;35.20;61.80;;;;;;5052888;28;20509;-51
2022/07/24 07:46:52;;;;;;;1.63;1.53;;;36.90;59.30;;;;;;5046483;28;20743;-48
2022/07/24 07:49:20;;;;;;;1.53;1.23;;;36.70;56.90;;;;;;5044428;28;20493;-47
2022/07/24 07:51:51;;;;;;;1.83;1.40;;;37.90;55.50;;;;;;5060546;28;20474;-47
2022/07/24 07:54:18;;;;;;;1.43;1.33;;;37.50;54.50;;;;;;5059316;28;20628;-51
2022/07/24 07:56:46;;;;;;;1.20;1.10;;;36.20;55.20;;;;;;5049327;28;20568;-47
2022/07/24 07:59:13;;;;;;;2.03;1.50;;;36.20;54.20;;;;;;5048959;28;20426;-48
2022/07/24 08:01:40;;;;;;;2.37;1.80;;;35.10;56.00;;;;;;5049662;28;20463;-47
2022/07/24 08:04:08;;;;;;;1.53;1.30;;;34.10;57.10;;;;;;5048879;28;20440;-50
2022/07/24 08:06:35;;;;;;;1.67;1.57;;;34.00;57.40;;;;;;5051388;28;20478;-47
2022/07/24 08:09:04;;;;;;;1.83;1.73;;;33.60;58.20;;;;;;5049406;28;20733;-46
2022/07/24 08:11:31;;;;;;;1.87;1.70;;;33.20;59.60;;;;;;5050693;28;20433;-48
2022/07/24 08:13:59;;;;;;;1.50;1.40;;;34.50;57.70;;;;;;5049026;28;20773;-49
2022/07/24 08:16:26;;;;;;;8.40;1.37;;;34.00;57.00;;;;;;5049232;28;20524;-48
2022/07/24 08:18:54;;;;;;;1.90;1.77;;;33.90;58.50;;;;;;5048926;28;20429;-47
2022/07/24 08:21:21;;;;;;;2.07;1.87;;;34.60;57.70;;;;;;5049227;28;20505;-52
2022/07/24 08:23:49;;;;;;;1.37;1.27;;;35.20;56.60;;;;;;5048972;28;20504;-51
2022/07/24 08:26:16;;;;;;;1.70;1.60;;;36.00;55.40;;;;;;5048565;28;20654;-49
2022/07/24 08:28:43;;;;;;;1.63;1.53;;;35.70;55.40;;;;;;5050143;28;20438;-48
2022/07/24 08:31:13;;;;;;;2.33;2.17;;;36.30;54.50;;;;;;5047585;28;20448;-50
2022/07/24 08:33:40;;;;;;;1.60;1.50;;;36.30;54.20;;;;;;5056691;28;20430;-53
2022/07/24 08:36:08;;;;;;;1.50;1.40;;;35.90;53.90;;;;;;5031800;28;20463;-46
2022/07/24 08:38:35;;;;;;;2.03;1.73;;;34.80;55.20;;;;;;5045453;28;20643;-48
2022/07/24 08:41:03;;;;;;;1.63;1.53;;;35.30;55.10;;;;;;5046593;28;20681;-46
2022/07/24 08:43:31;;;;;;;2.13;1.97;;;35.90;53.40;;;;;;5061548;28;20440;-51
2022/07/24 08:46:02;;;;;;;1.77;1.67;;;35.60;54.50;;;;;;5061734;28;20456;-52
2022/07/24 08:48:31;;;;;;;1.80;1.70;;;36.10;54.20;;;;;;5062113;28;20522;-50
2022/07/24 08:51:01;;;;;;;1.57;1.47;;;36.60;53.20;;;;;;5048601;28;20433;-50
2022/07/24 08:53:28;;;;;;;2.07;1.83;;;36.50;53.00;;;;;;5049131;28;20432;-50
2022/07/24 08:55:58;;;;;;;2.13;1.40;;;36.20;53.90;;;;;;5051548;28;20468;-47
2022/07/24 08:58:26;;;;;;;1.90;1.63;;;36.40;53.90;;;;;;5046825;28;20655;-49
2022/07/24 09:00:54;;;;;;;1.97;1.87;;;37.80;52.00;;;;;;5049074;28;20440;-51
2022/07/24 09:03:22;;;;;;;3.07;1.73;;;38.30;51.10;;;;;;5052071;28;20494;-51
2022/07/24 09:05:57;;;;;;;2.23;1.93;;;38.00;50.40;;;;;;5043425;28;20449;-48
2022/07/24 09:08:24;;;;;;;1.90;1.80;;;36.30;51.50;;;;;;5048070;28;20472;-48
2022/07/24 09:10:59;;;;;;;3.97;1.57;;;34.80;52.10;;;;;;5047629;28;20444;-50
2022/07/24 09:14:29;;;;;;;1.30;1.20;;;34.00;53.60;;;;;;5046448;28;20441;-47
2022/07/24 09:16:23;;;;;;;2.13;1.97;;;34.70;52.60;;;;;;5045126;28;20480;-49
2022/07/24 09:19:08;;;;;;;1.57;1.47;;;34.30;53.80;;;;;;5045435;28;20483;-50
2022/07/24 09:21:42;;;;;;;1.30;1.20;;;36.00;52.30;;;;;;5047607;28;20437;-48
2022/07/24 09:24:18;;;;;;;1.53;1.33;;;35.90;51.20;;;;;;5048670;28;20435;-51
2022/07/24 09:26:47;;;;;;;1.13;1.10;;;35.40;50.00;;;;;;5047653;28;20691;-50
2022/07/24 09:29:18;;;;;;;1.33;1.23;;;34.60;51.80;;;;;;5053067;28;20917;-47
2022/07/24 09:32:00;;;;;;;1.40;1.30;;;35.60;51.40;;;;;;5048680;28;20422;-51
2022/07/24 09:34:39;;;;;;;1.43;1.33;;;36.30;50.20;;;;;;5051525;28;20463;-54
2022/07/24 09:37:07;;;;;;;1.30;1.20;;;36.80;50.10;;;;;;5048464;28;20503;-48
2022/07/24 09:39:37;;;;;;;1.40;1.30;;;35.50;47.90;;;;;;5049287;28;20441;-47
2022/07/24 09:42:06;;;;;;;1.53;1.20;;;32.40;52.60;;;;;;5048647;28;20440;-50
2022/07/24 09:44:34;;;;;;;1.97;1.13;;;31.10;55.80;;;;;;5048734;28;20509;-48
2022/07/24 09:47:08;;;;;;;2.37;1.80;;;29.90;57.00;;;;;;5050212;28;20551;-50
2022/07/24 09:49:36;;;;;;;1.23;1.13;;;29.00;59.30;;;;;;5049585;28;20446;-48
2022/07/24 09:52:10;;;;;;;3.57;1.87;;;28.40;61.10;;;;;;5050295;28;20493;-48
2022/07/24 09:54:40;;;;;;;4.63;1.57;;;28.10;61.80;;;;;;5048970;28;20760;-49
2022/07/24 09:57:27;;;;;;;1.53;1.43;;;27.90;64.30;;;;;;5047354;28;20461;-50
2022/07/24 09:59:54;;;;;;;1.40;1.30;;;27.90;64.90;;;;;;5048155;28;20418;-50
2022/07/24 10:02:28;;;;;;;1.20;1.10;;;27.80;65.30;;;;;;5050445;28;20441;-47
2022/07/24 10:04:57;;;;;;;1.67;1.30;;;27.70;64.70;;;;;;5054879;28;20441;-48
2022/07/24 10:07:26;;;;;;;1.00;0.90;;;27.50;65.90;;;;;;5048069;28;20491;-48
2022/07/24 10:09:56;;;;;;;1.30;1.20;;;27.50;66.40;;;;;;5054702;28;20403;-46
2022/07/24 10:12:26;;;;;;;1.33;1.20;;;27.20;64.10;;;;;;5047734;28;20499;-49
2022/07/24 10:14:56;;;;;;;1.47;1.20;;;27.30;65.70;;;;;;5054866;28;20418;-48
2022/07/24 10:17:46;;;;;;;1.13;1.00;;;27.40;66.50;;;;;;5046567;28;20495;-48
2022/07/24 10:20:32;;;;;;;1.33;1.23;;;27.40;66.30;;;;;;5055277;28;20421;-49
2022/07/24 10:23:21;;;;;;;1.50;1.40;;;27.10;65.40;;;;;;5051446;28;20796;-48
2022/07/24 10:26:00;;;;;;;1.77;1.60;;;26.70;65.00;;;;;;5051022;28;20442;-50
2022/07/24 10:28:39;;;;;;;1.20;1.10;;;26.50;65.10;;;;;;5052652;28;20453;-49
2022/07/24 10:31:08;;;;;;;1.70;1.30;;;26.20;65.30;;;;;;5052729;28;20430;-50
2022/07/24 10:33:38;;;;;;;2.70;1.63;;;26.00;65.40;;;;;;5052640;28;20408;-50
2022/07/24 10:36:16;;;;;;;1.83;1.40;;;26.00;65.70;;;;;;5051299;28;20489;-45
2022/07/24 10:38:52;;;;;;;1.50;1.40;;;26.20;66.10;;;;;;5053841;28;20434;-50
2022/07/24 10:41:25;;;;;;;0.97;0.97;;;26.40;65.50;;;;;;5048746;28;20754;-48
2022/07/24 10:44:14;;;;;;;1.50;1.40;;;26.20;64.20;;;;;;5051382;28;20507;-48
2022/07/24 10:47:00;;;;;;;1.90;1.67;;;25.80;66.70;;;;;;5029054;28;20443;-49
2022/07/24 10:49:45;;;;;;;3.93;2.70;;;25.90;65.60;;;;;;5040136;28;20430;-49
2022/07/24 10:52:29;;;;;;;1.60;1.50;;;26.10;66.60;;;;;;5071604;28;20422;-49
2022/07/24 10:55:31;;;;;;;1.87;1.77;;;26.20;65.80;;;;;;5051573;28;20423;-49
2022/07/24 10:58:15;;;;;;;3.37;1.93;;;26.30;63.90;;;;;;5052092;28;20412;-49
2022/07/24 11:00:48;;;;;;;1.70;1.60;;;26.10;65.40;;;;;;5046030;28;20415;-48
2022/07/24 11:03:23;;;;;;;1.67;1.57;;;26.20;63.90;;;;;;5053713;28;20429;-47
2022/07/24 11:06:06;;;;;;;1.77;1.50;;;26.20;62.80;;;;;;5050132;28;20459;-46
2022/07/24 11:08:51;;;;;;;1.70;1.40;;;26.30;63.80;;;;;;5055169;28;20457;-50
2022/07/24 11:11:21;;;;;;;3.70;3.20;;;26.20;64.10;;;;;;5050138;28;20468;-49
2022/07/24 11:13:53;;;;;;;2.70;2.50;;;26.20;64.30;;;;;;5049991;28;20412;-46
2022/07/24 11:16:32;;;;;;;1.50;1.40;;;26.20;63.60;;;;;;5050349;28;20475;-51
2022/07/24 11:19:06;;;;;;;1.57;1.47;;;26.30;63.80;;;;;;5049857;28;20405;-49
2022/07/24 11:21:43;;;;;;;1.30;1.23;;;26.20;64.50;;;;;;5051479;28;20413;-49
2022/07/24 11:24:13;;;;;;;1.50;1.40;;;26.10;65.30;;;;;;5048706;28;20408;-50
2022/07/24 11:26:49;;;;;;;2.23;2.13;;;26.20;64.80;;;;;;5052609;28;20778;-52
2022/07/24 11:29:23;;;;;;;1.70;1.60;;;26.30;64.90;;;;;;5046721;28;20678;-47
2022/07/24 11:31:55;;;;;;;2.90;2.70;;;26.50;63.20;;;;;;5048837;28;20727;-48
2022/07/24 11:34:23;;;;;;;2.37;2.17;;;26.50;63.50;;;;;;5045420;28;20532;-46
2022/07/24 11:36:52;;;;;;;2.77;2.30;;;26.50;64.00;;;;;;5052381;28;20424;-46
2022/07/24 11:39:26;;;;;;;2.63;2.40;;;26.50;62.30;;;;;;5052821;28;20779;-46
2022/07/24 11:41:56;;;;;;;5.97;2.50;;;26.20;62.50;;;;;;5048033;28;20411;-46
2022/07/24 11:44:26;;;;;;;2.70;2.50;;;26.10;63.30;;;;;;5052100;28;20475;-51
2022/07/24 11:46:54;;;;;;;3.30;3.00;;;26.20;64.20;;;;;;5047411;28;20813;-50
2022/07/24 11:49:21;;;;;;;2.90;2.70;;;26.20;63.60;;;;;;5053361;28;20511;-50
2022/07/24 11:51:50;;;;;;;4.47;4.17;;;26.40;61.80;;;;;;5053971;28;20408;-46
2022/07/24 11:54:27;;;;;;;4.57;4.27;;;26.50;59.50;;;;;;5049924;28;20814;-48
2022/07/24 11:56:56;;;;;;;4.43;4.10;;;26.70;58.90;;;;;;5049248;28;20456;-48
2022/07/24 11:59:26;;;;;;;3.73;3.50;;;26.60;59.00;;;;;;5049337;28;20437;-49
2022/07/24 12:02:03;;;;;;;4.90;4.40;;;26.30;60.20;;;;;;5049335;28;20878;-46
2022/07/24 12:04:31;;;;;;;4.80;4.40;;;26.20;61.00;;;;;;5049969;28;20446;-49
2022/07/24 12:06:58;;;;;;;4.87;4.50;;;26.30;62.30;;;;;;5049833;28;20437;-50
2022/07/24 12:09:26;;;;;;;4.57;4.17;;;26.60;62.20;;;;;;5049093;28;20664;-50
2022/07/24 12:11:56;;;;;;;4.93;4.53;;;26.70;60.60;;;;;;5049103;28;20934;-49
2022/07/24 12:14:23;;;;;;;3.20;3.00;;;26.70;61.40;;;;;;5049583;28;20445;-51
2022/07/24 12:16:55;;;;;;;2.90;2.70;;;26.50;58.90;;;;;;5048174;28;20717;-50
2022/07/24 12:19:24;;;;;;;2.10;2.00;;;26.40;59.80;;;;;;5049031;28;20623;-49
2022/07/24 12:21:53;;;;;;;2.77;2.57;;;26.40;58.50;;;;;;5052295;28;20499;-48
2022/07/24 12:24:21;;;;;;;3.13;2.77;;;26.30;58.70;;;;;;5046382;28;20419;-49
2022/07/24 12:26:52;;;;;;;3.33;3.03;;;26.40;59.30;;;;;;5049080;28;20463;-45
2022/07/24 12:29:21;;;;;;;2.43;1.83;;;26.40;59.50;;;;;;5045356;28;20847;-53
2022/07/24 12:31:49;;;;;;;1.33;1.23;;;26.50;59.60;;;;;;5048030;28;20759;-47
2022/07/24 12:34:17;;;;;;;1.77;1.57;;;26.60;59.10;;;;;;5045008;28;20503;-48
2022/07/24 12:36:44;;;;;;;1.33;1.20;;;26.70;58.80;;;;;;5051176;28;20635;-50
2022/07/24 12:39:12;;;;;;;1.83;1.20;;;26.50;58.20;;;;;;5052254;28;20655;-47
2022/07/24 12:41:45;;;;;;;1.37;1.27;;;26.30;59.00;;;;;;5045411;28;20449;-48
2022/07/24 12:44:16;;;;;;;1.53;1.40;;;26.20;59.50;;;;;;5055255;28;20428;-48
2022/07/24 12:46:47;;;;;;;2.10;2.00;;;26.30;60.90;;;;;;5044026;28;20440;-53
2022/07/24 12:49:16;;;;;;;1.90;1.80;;;26.20;61.50;;;;;;5050333;28;20460;-46
2022/07/24 12:51:55;;;;;;;1.40;1.30;;;26.30;62.60;;;;;;5035654;28;20498;-51
2022/07/24 12:54:29;;;;;;;1.47;1.37;;;26.40;62.10;;;;;;5049568;28;20434;-51